createdAt,value
2019-03-17T00:00:16.414Z,6.97
2019-03-17T00:02:47.596Z,6.60
2019-03-17T00:05:17.607Z,7.33
2019-03-17T00:07:49.160Z,7.00
2019-03-17T00:10:22.114Z,6.37
2019-03-17T00:12:51.379Z,8.37
2019-03-17T00:15:21.525Z,8.80
2019-03-17T00:17:51.505Z,8.80
2019-03-17T00:20:21.522Z,7.70
2019-03-17T00:22:51.605Z,11.30
2019-03-17T00:25:21.602Z,7.87
2019-03-17T00:27:52.767Z,7.83
2019-03-17T00:30:24.435Z,6.77
2019-03-17T00:32:56.936Z,6.97
2019-03-17T00:35:28.164Z,6.83
2019-03-17T00:37:57.955Z,6.97
2019-03-17T00:40:28.093Z,5.70
2019-03-17T00:43:04.191Z,6.63
2019-03-17T00:45:34.319Z,6.93
2019-03-17T00:48:05.587Z,6.30
2019-03-17T00:50:35.585Z,6.30
2019-03-17T00:53:08.807Z,6.50
2019-03-17T00:55:42.848Z,6.37
2019-03-17T00:58:12.910Z,5.57
2019-03-17T01:00:43.017Z,4.70
2019-03-17T01:03:13.073Z,4.47
2019-03-17T01:05:43.129Z,4.37
2019-03-17T01:08:13.217Z,4.10
2019-03-17T01:10:43.208Z,4.03
2019-03-17T01:13:13.429Z,4.23
2019-03-17T01:15:43.400Z,4.47
2019-03-17T01:18:13.460Z,3.80
2019-03-17T01:20:43.444Z,3.40
2019-03-17T01:23:13.526Z,2.90
2019-03-17T01:25:43.614Z,2.97
2019-03-17T01:28:13.675Z,2.80
2019-03-17T01:30:46.588Z,2.50
2019-03-17T01:33:16.667Z,2.40
2019-03-17T01:35:46.643Z,2.60
2019-03-17T01:38:16.662Z,2.10
2019-03-17T01:40:46.716Z,2.03
2019-03-17T01:43:16.744Z,2.30
2019-03-17T01:45:46.798Z,2.07
2019-03-17T01:48:16.783Z,2.57
2019-03-17T01:50:46.766Z,2.70
2019-03-17T01:53:19.795Z,2.50
2019-03-17T01:55:51.566Z,2.50
2019-03-17T01:58:21.547Z,3.30
2019-03-17T02:00:51.609Z,2.30
2019-03-17T02:03:21.660Z,2.23
2019-03-17T02:05:51.685Z,2.07
2019-03-17T02:08:21.749Z,2.27
2019-03-17T02:10:51.757Z,1.70
2019-03-17T02:13:21.805Z,1.60
2019-03-17T02:15:51.851Z,1.93
2019-03-17T02:18:21.835Z,1.80
2019-03-17T02:20:51.828Z,2.20
2019-03-17T02:23:23.522Z,1.70
2019-03-17T02:25:53.502Z,1.50
2019-03-17T02:28:30.300Z,1.50
2019-03-17T02:31:00.370Z,2.20
2019-03-17T02:33:30.405Z,1.50
2019-03-17T02:36:01.931Z,2.03
2019-03-17T02:38:31.971Z,1.60
2019-03-17T02:41:03.348Z,1.90
2019-03-17T02:43:43.939Z,1.70
2019-03-17T02:46:11.823Z,1.67
2019-03-17T02:48:43.537Z,2.20
2019-03-17T02:51:13.646Z,2.50
2019-03-17T02:53:43.667Z,2.30
2019-03-17T02:56:14.824Z,2.10
2019-03-17T02:58:44.809Z,1.60
2019-03-17T03:01:17.553Z,2.03
2019-03-17T03:03:50.972Z,1.63
2019-03-17T03:06:27.175Z,2.10
2019-03-17T03:09:00.198Z,2.20
2019-03-17T03:11:32.698Z,2.07
2019-03-17T03:14:03.802Z,1.70
2019-03-17T03:16:33.945Z,2.00
2019-03-17T03:19:04.048Z,2.43
2019-03-17T03:21:34.143Z,1.97
2019-03-17T03:24:04.292Z,9.50
2019-03-17T03:26:35.532Z,5.03
2019-03-17T03:29:05.624Z,4.60
2019-03-17T03:31:39.430Z,3.80
2019-03-17T03:34:09.210Z,3.40
2019-03-17T03:36:39.255Z,3.40
2019-03-17T03:39:12.435Z,3.03
2019-03-17T03:41:42.503Z,2.97
2019-03-17T03:44:13.853Z,2.50
2019-03-17T03:46:43.960Z,2.90
2019-03-17T03:49:14.785Z,2.57
2019-03-17T03:51:44.936Z,1.90
2019-03-17T03:54:18.053Z,2.00
2019-03-17T03:56:49.936Z,2.20
2019-03-17T03:59:26.201Z,2.57
2019-03-17T04:01:56.279Z,2.40
2019-03-17T04:04:27.566Z,2.10
2019-03-17T04:06:57.713Z,2.20
2019-03-17T04:09:30.789Z,2.03
2019-03-17T04:12:00.856Z,2.13
2019-03-17T04:14:38.882Z,2.53
2019-03-17T04:17:05.303Z,2.30
2019-03-17T04:19:35.368Z,2.40
2019-03-17T04:22:05.477Z,2.50
2019-03-17T04:24:35.477Z,2.30
2019-03-17T04:27:07.207Z,12.87
2019-03-17T04:29:42.317Z,4.40
2019-03-17T04:32:12.004Z,3.70
2019-03-17T04:34:43.206Z,3.03
2019-03-17T04:37:16.056Z,3.00
2019-03-17T04:39:46.162Z,7.17
2019-03-17T04:42:20.680Z,3.40
2019-03-17T04:44:50.691Z,3.60
2019-03-17T04:47:20.695Z,3.13
2019-03-17T04:49:51.849Z,6.43
2019-03-17T04:52:25.491Z,2.47
2019-03-17T04:54:57.081Z,2.70
2019-03-17T04:57:27.059Z,2.23
2019-03-17T04:59:57.059Z,3.03
2019-03-17T05:02:27.039Z,3.07
2019-03-17T05:05:00.071Z,2.53
2019-03-17T05:07:29.849Z,1.97
2019-03-17T05:09:59.914Z,2.20
2019-03-17T05:12:30.149Z,1.40
2019-03-17T05:15:01.171Z,2.30
2019-03-17T05:17:33.040Z,2.50
2019-03-17T05:20:06.549Z,1.80
2019-03-17T05:22:36.366Z,1.97
2019-03-17T05:25:16.294Z,2.67
2019-03-17T05:27:46.420Z,2.63
2019-03-17T05:30:16.400Z,2.87
2019-03-17T05:32:48.193Z,2.23
2019-03-17T05:35:22.646Z,2.10
2019-03-17T05:37:53.514Z,2.40
2019-03-17T05:40:23.506Z,1.70
2019-03-17T05:42:53.489Z,2.13
2019-03-17T05:45:23.483Z,2.07
2019-03-17T05:47:53.530Z,1.90
2019-03-17T05:50:25.212Z,2.20
2019-03-17T05:52:55.209Z,1.80
2019-03-17T05:55:26.191Z,2.40
2019-03-17T05:57:58.681Z,2.00
2019-03-17T06:00:30.674Z,2.60
2019-03-17T06:03:02.002Z,2.40
2019-03-17T06:05:35.849Z,1.60
2019-03-17T06:08:06.939Z,2.90
2019-03-17T06:10:41.244Z,2.73
2019-03-17T06:13:12.461Z,3.63
2019-03-17T06:15:44.304Z,4.17
2019-03-17T06:18:14.470Z,3.30
2019-03-17T06:20:44.660Z,2.90
2019-03-17T06:23:16.004Z,2.20
2019-03-17T06:25:48.484Z,2.10
2019-03-17T06:28:21.549Z,2.10
2019-03-17T06:30:50.374Z,1.90
2019-03-17T06:33:22.046Z,1.90
2019-03-17T06:35:53.368Z,1.80
2019-03-17T06:38:24.786Z,1.93
2019-03-17T06:40:56.373Z,1.50
2019-03-17T06:43:26.377Z,2.00
2019-03-17T06:45:57.745Z,1.20
2019-03-17T06:48:29.083Z,2.37
2019-03-17T06:51:00.651Z,3.07
2019-03-17T06:53:32.813Z,3.00
2019-03-17T06:56:06.981Z,2.93
2019-03-17T06:58:38.274Z,2.30
2019-03-17T07:01:08.399Z,2.20
2019-03-17T07:03:40.038Z,2.40
2019-03-17T07:06:12.043Z,3.30
2019-03-17T07:08:41.767Z,3.17
2019-03-17T07:11:11.833Z,2.70
2019-03-17T07:13:41.879Z,1.87
2019-03-17T07:16:14.902Z,2.20
2019-03-17T07:18:46.564Z,2.50
2019-03-17T07:21:17.320Z,1.67
2019-03-17T07:23:54.703Z,1.50
2019-03-17T07:26:27.897Z,1.63
2019-03-17T07:28:57.884Z,2.13
2019-03-17T07:31:27.891Z,1.63
2019-03-17T07:33:57.894Z,1.50
2019-03-17T07:36:27.963Z,1.37
2019-03-17T07:39:11.296Z,1.90
2019-03-17T07:41:34.797Z,1.73
2019-03-17T07:44:04.827Z,1.17
2019-03-17T07:46:34.833Z,1.67
2019-03-17T07:49:06.488Z,1.20
2019-03-17T07:51:36.551Z,2.10
2019-03-17T07:54:06.607Z,1.67
2019-03-17T07:56:38.936Z,1.40
2019-03-17T07:59:15.385Z,1.67
2019-03-17T08:01:44.685Z,1.30
2019-03-17T08:04:16.025Z,1.50
2019-03-17T08:06:46.029Z,1.60
2019-03-17T08:09:16.053Z,1.30
2019-03-17T08:11:46.038Z,1.03
2019-03-17T08:14:16.121Z,1.30
2019-03-17T08:16:46.130Z,1.33
2019-03-17T08:19:16.179Z,1.60
2019-03-17T08:21:46.264Z,1.10
2019-03-17T08:24:16.442Z,1.22
2019-03-17T08:26:46.632Z,0.93
2019-03-17T08:29:16.648Z,0.90
2019-03-17T08:31:46.655Z,0.80
2019-03-17T08:34:16.756Z,0.85
2019-03-17T08:36:46.836Z,0.80
2019-03-17T08:39:16.896Z,0.80
2019-03-17T08:41:46.908Z,0.85
2019-03-17T08:44:16.978Z,0.62
2019-03-17T08:46:47.062Z,0.72
2019-03-17T08:49:17.133Z,0.62
2019-03-17T08:51:47.202Z,0.85
2019-03-17T08:54:17.202Z,0.65
2019-03-17T08:56:47.296Z,0.60
2019-03-17T08:59:17.422Z,0.72
2019-03-17T09:01:47.814Z,2.83
2019-03-17T09:04:17.969Z,2.05
2019-03-17T09:06:48.002Z,0.90
2019-03-17T09:09:18.128Z,0.70
2019-03-17T09:11:48.143Z,0.80
2019-03-17T09:14:18.143Z,0.78
2019-03-17T09:16:48.261Z,0.80
2019-03-17T09:19:18.338Z,0.78
2019-03-17T09:21:48.425Z,0.80
2019-03-17T09:24:18.490Z,0.80
2019-03-17T09:26:48.481Z,0.70
2019-03-17T09:29:18.497Z,0.70
2019-03-17T09:31:48.596Z,0.90
2019-03-17T09:34:18.598Z,0.90
2019-03-17T09:36:48.587Z,1.00
2019-03-17T09:39:20.141Z,0.95
2019-03-17T09:41:50.278Z,0.88
2019-03-17T09:44:20.359Z,0.72
2019-03-17T09:46:50.375Z,0.80
2019-03-17T09:49:20.387Z,1.10
2019-03-17T09:51:50.445Z,1.10
2019-03-17T09:54:20.543Z,0.82
2019-03-17T09:56:50.641Z,1.00
2019-03-17T09:59:20.664Z,0.70
2019-03-17T10:01:50.723Z,1.53
2019-03-17T10:04:20.819Z,0.83
2019-03-17T10:06:51.106Z,0.90
2019-03-17T10:09:21.216Z,1.00
2019-03-17T10:11:51.253Z,0.80
2019-03-17T10:14:21.274Z,0.90
2019-03-17T10:16:51.362Z,0.70
2019-03-17T10:19:21.442Z,0.90
2019-03-17T10:21:54.314Z,1.87
2019-03-17T10:24:24.383Z,3.57
2019-03-17T10:26:54.706Z,4.00
2019-03-17T10:29:26.473Z,1.50
2019-03-17T10:31:59.732Z,1.60
2019-03-17T10:34:29.811Z,1.17
2019-03-17T10:37:03.789Z,1.40
2019-03-17T10:39:33.902Z,1.20
2019-03-17T10:42:09.854Z,1.50
2019-03-17T10:44:38.391Z,1.17
2019-03-17T10:47:08.370Z,1.60
2019-03-17T10:49:38.398Z,1.60
2019-03-17T10:52:11.417Z,1.10
2019-03-17T10:54:44.290Z,1.53
2019-03-17T10:57:14.584Z,1.10
2019-03-17T10:59:44.576Z,1.20
2019-03-17T11:02:14.584Z,1.33
2019-03-17T11:04:47.338Z,1.33
2019-03-17T11:07:17.308Z,1.00
2019-03-17T11:09:47.306Z,1.60
2019-03-17T11:12:19.083Z,1.13
2019-03-17T11:14:49.094Z,1.00
2019-03-17T11:17:19.099Z,1.07
2019-03-17T11:19:49.213Z,1.23
2019-03-17T11:22:19.230Z,1.00
2019-03-17T11:24:49.221Z,1.00
2019-03-17T11:27:19.331Z,1.40
2019-03-17T11:29:49.355Z,1.37
2019-03-17T11:32:19.344Z,0.90
2019-03-17T11:34:49.343Z,1.20
2019-03-17T11:37:20.369Z,1.00
2019-03-17T11:39:50.547Z,1.13
2019-03-17T11:42:22.947Z,1.37
2019-03-17T11:44:53.092Z,1.37
2019-03-17T11:47:23.387Z,1.00
2019-03-17T11:49:58.054Z,1.27
2019-03-17T11:52:28.119Z,1.00
2019-03-17T11:54:58.281Z,1.30
2019-03-17T11:57:28.368Z,1.43
2019-03-17T11:59:58.363Z,1.50
2019-03-17T12:02:28.419Z,1.03
2019-03-17T12:04:58.433Z,1.23
2019-03-17T12:07:28.442Z,1.10
2019-03-17T12:09:58.519Z,1.10
2019-03-17T12:12:28.607Z,1.20
2019-03-17T12:14:58.707Z,1.20
2019-03-17T12:17:28.778Z,1.27
2019-03-17T12:19:58.753Z,0.93
2019-03-17T12:22:28.776Z,1.30
2019-03-17T12:24:58.889Z,0.87
2019-03-17T12:27:28.953Z,1.10
2019-03-17T12:29:59.066Z,1.37
2019-03-17T12:32:29.145Z,1.10
2019-03-17T12:34:59.240Z,0.87
2019-03-17T12:37:29.229Z,1.00
2019-03-17T12:40:02.753Z,1.00
2019-03-17T12:42:31.048Z,0.83
2019-03-17T12:45:01.179Z,1.23
2019-03-17T12:47:31.340Z,1.00
2019-03-17T12:50:04.444Z,1.10
2019-03-17T12:52:34.519Z,1.20
2019-03-17T12:55:05.327Z,1.33
2019-03-17T12:57:35.404Z,1.10
2019-03-17T13:00:06.899Z,1.07
2019-03-17T13:02:36.896Z,1.40
2019-03-17T13:05:07.256Z,1.17
2019-03-17T13:07:37.276Z,1.43
2019-03-17T13:10:15.862Z,1.10
2019-03-17T13:12:45.404Z,1.30
2019-03-17T13:15:15.567Z,1.00
2019-03-17T13:17:47.062Z,1.20
2019-03-17T13:20:17.091Z,1.00
2019-03-17T13:22:47.252Z,1.40
2019-03-17T13:25:18.612Z,1.30
2019-03-17T13:27:48.773Z,1.10
2019-03-17T13:30:18.989Z,1.57
2019-03-17T13:32:49.156Z,1.07
2019-03-17T13:35:19.228Z,1.10
2019-03-17T13:37:49.244Z,1.57
2019-03-17T13:40:28.782Z,1.00
2019-03-17T13:42:50.942Z,1.00
2019-03-17T13:45:21.034Z,1.20
2019-03-17T13:47:53.006Z,2.10
2019-03-17T13:50:22.861Z,1.00
2019-03-17T13:52:57.141Z,1.17
2019-03-17T13:55:28.355Z,1.43
2019-03-17T13:58:03.525Z,1.10
2019-03-17T14:00:35.886Z,1.30
2019-03-17T14:03:07.339Z,1.70
2019-03-17T14:05:37.438Z,4.23
2019-03-17T14:08:07.503Z,0.90
2019-03-17T14:10:41.433Z,1.20
2019-03-17T14:13:09.443Z,1.30
2019-03-17T14:15:39.633Z,1.03
2019-03-17T14:18:09.711Z,1.50
2019-03-17T14:20:39.813Z,1.13
2019-03-17T14:23:09.825Z,1.47
2019-03-17T14:25:39.915Z,1.63
2019-03-17T14:28:11.709Z,1.50
2019-03-17T14:30:41.731Z,1.00
2019-03-17T14:33:11.806Z,1.10
2019-03-17T14:35:41.904Z,1.20
2019-03-17T14:38:11.993Z,1.20
2019-03-17T14:40:52.843Z,1.30
2019-03-17T14:43:13.855Z,1.13
2019-03-17T14:45:44.030Z,1.33
2019-03-17T14:48:14.031Z,1.10
2019-03-17T14:50:44.045Z,1.53
2019-03-17T14:53:14.179Z,1.57
2019-03-17T14:55:44.191Z,1.27
2019-03-17T14:58:14.521Z,1.40
2019-03-17T15:00:45.274Z,1.40
2019-03-17T15:03:16.535Z,1.60
2019-03-17T15:05:46.659Z,1.63
2019-03-17T15:08:16.759Z,1.40
2019-03-17T15:10:46.850Z,1.23
2019-03-17T15:13:17.822Z,1.40
2019-03-17T15:16:01.957Z,1.33
2019-03-17T15:18:21.337Z,1.23
2019-03-17T15:20:51.326Z,1.40
2019-03-17T15:23:21.429Z,1.60
2019-03-17T15:25:51.524Z,1.23
2019-03-17T15:28:22.744Z,1.53
2019-03-17T15:31:09.731Z,1.40
2019-03-17T15:33:25.851Z,1.63
2019-03-17T15:35:57.557Z,1.50
2019-03-17T15:38:27.706Z,1.67
2019-03-17T15:40:57.881Z,1.60
2019-03-17T15:43:34.154Z,1.60
2019-03-17T15:46:05.912Z,2.47
2019-03-17T15:48:37.502Z,1.53
2019-03-17T15:51:19.260Z,2.27
2019-03-17T15:53:39.314Z,1.87
2019-03-17T15:56:10.605Z,2.03
2019-03-17T15:58:40.756Z,2.00
2019-03-17T16:01:12.141Z,2.57
2019-03-17T16:03:42.240Z,2.27
2019-03-17T16:06:12.268Z,2.10
2019-03-17T16:08:45.124Z,2.03
2019-03-17T16:11:15.237Z,2.10
2019-03-17T16:13:47.070Z,1.90
2019-03-17T16:16:17.198Z,1.97
2019-03-17T16:18:48.928Z,1.97
2019-03-17T16:21:18.935Z,1.93
2019-03-17T16:23:49.012Z,2.57
2019-03-17T16:26:19.024Z,1.90
2019-03-17T16:28:49.014Z,2.23
2019-03-17T16:31:19.148Z,1.70
2019-03-17T16:33:49.406Z,2.07
2019-03-17T16:36:19.483Z,1.80
2019-03-17T16:38:49.578Z,1.97
2019-03-17T16:41:19.675Z,1.90
2019-03-17T16:43:49.681Z,1.90
2019-03-17T16:46:19.691Z,1.80
2019-03-17T16:48:50.117Z,1.93
2019-03-17T16:51:21.281Z,2.50
2019-03-17T16:53:51.423Z,3.20
2019-03-17T16:56:22.714Z,2.67
2019-03-17T16:58:52.793Z,2.20
2019-03-17T17:01:22.795Z,2.03
2019-03-17T17:03:54.020Z,2.20
2019-03-17T17:06:24.012Z,2.22
2019-03-17T17:08:56.687Z,2.20
2019-03-17T17:11:27.154Z,9.90
2019-03-17T17:14:00.101Z,3.33
2019-03-17T17:16:30.131Z,2.30
2019-03-17T17:19:00.192Z,2.37
2019-03-17T17:21:30.278Z,2.40
2019-03-17T17:24:02.133Z,2.93
2019-03-17T17:26:37.310Z,3.10
2019-03-17T17:29:06.696Z,2.40
2019-03-17T17:31:36.809Z,3.07
2019-03-17T17:34:09.907Z,2.90
2019-03-17T17:36:40.049Z,3.97
2019-03-17T17:39:10.392Z,3.40
2019-03-17T17:41:41.941Z,5.13
2019-03-17T17:44:17.816Z,6.47
2019-03-17T17:46:50.982Z,4.03
2019-03-17T17:49:20.969Z,3.70
2019-03-17T17:51:50.971Z,4.90
2019-03-17T17:54:21.199Z,3.47
2019-03-17T17:56:51.233Z,3.87
2019-03-17T17:59:24.288Z,2.40
2019-03-17T18:01:54.419Z,2.60
2019-03-17T18:04:25.439Z,2.90
2019-03-17T18:06:55.627Z,3.07
2019-03-17T18:09:25.714Z,2.50
2019-03-17T18:11:57.139Z,3.37
2019-03-17T18:14:27.165Z,1.80
2019-03-17T18:16:58.711Z,1.27
2019-03-17T18:19:28.902Z,1.27
2019-03-17T18:21:59.152Z,0.93
2019-03-17T18:24:31.339Z,0.77
2019-03-17T18:27:03.769Z,0.60
2019-03-17T18:29:35.020Z,0.67
2019-03-17T18:32:07.981Z,0.40
2019-03-17T18:34:38.004Z,0.57
2019-03-17T18:37:09.989Z,0.40
2019-03-17T18:39:39.879Z,0.40
2019-03-17T18:42:10.298Z,0.60
2019-03-17T18:44:43.880Z,0.60
2019-03-17T18:47:18.931Z,0.50
2019-03-17T18:49:49.237Z,0.50
2019-03-17T18:52:21.348Z,0.50
2019-03-17T18:54:58.323Z,0.50
2019-03-17T18:57:28.431Z,0.50
2019-03-17T18:59:58.468Z,0.53
2019-03-17T19:02:28.594Z,0.50
2019-03-17T19:05:00.483Z,0.50
2019-03-17T19:07:30.536Z,0.50
2019-03-17T19:10:00.659Z,0.50
2019-03-17T19:12:30.894Z,0.60
2019-03-17T19:15:00.973Z,0.53
2019-03-17T19:17:31.090Z,0.67
2019-03-17T19:20:01.305Z,0.60
2019-03-17T19:22:31.471Z,0.60
2019-03-17T19:25:01.573Z,0.50
2019-03-17T19:27:31.787Z,0.53
2019-03-17T19:30:01.814Z,0.50
2019-03-17T19:32:32.178Z,0.50
2019-03-17T19:35:02.198Z,0.50
2019-03-17T19:37:32.350Z,0.60
2019-03-17T19:40:02.452Z,0.53
2019-03-17T19:42:32.650Z,0.60
2019-03-17T19:45:02.807Z,0.70
2019-03-17T19:47:34.026Z,0.47
2019-03-17T19:50:05.412Z,0.70
2019-03-17T19:52:35.530Z,0.70
2019-03-17T19:55:07.662Z,0.70
2019-03-17T19:57:37.963Z,0.63
2019-03-17T20:00:09.517Z,0.63
2019-03-17T20:02:39.792Z,0.50
2019-03-17T20:05:09.981Z,0.67
2019-03-17T20:07:40.188Z,0.70
2019-03-17T20:10:14.075Z,0.80
2019-03-17T20:12:44.512Z,0.90
2019-03-17T20:15:14.726Z,0.80
2019-03-17T20:17:46.632Z,10.90
2019-03-17T20:20:16.905Z,1.00
2019-03-17T20:22:47.159Z,1.03
2019-03-17T20:25:17.151Z,1.10
2019-03-17T20:27:47.265Z,1.10
2019-03-17T20:30:17.450Z,1.10
2019-03-17T20:32:47.809Z,1.13
2019-03-17T20:35:18.001Z,1.10
2019-03-17T20:37:48.466Z,1.10
2019-03-17T20:40:18.514Z,1.57
2019-03-17T20:42:48.754Z,0.80
2019-03-17T20:45:20.403Z,1.10
2019-03-17T20:47:52.019Z,1.97
2019-03-17T20:50:22.306Z,0.90
2019-03-17T20:52:52.333Z,1.03
2019-03-17T20:55:22.413Z,0.80
2019-03-17T20:57:52.517Z,0.97
2019-03-17T21:00:25.049Z,0.73
2019-03-17T21:02:56.213Z,0.70
2019-03-17T21:05:26.334Z,1.13
2019-03-17T21:07:56.432Z,1.00
2019-03-17T21:10:26.688Z,0.80
2019-03-17T21:12:56.803Z,0.80
2019-03-17T21:15:28.349Z,0.80
2019-03-17T21:17:58.457Z,0.70
2019-03-17T21:20:31.538Z,0.90
2019-03-17T21:23:01.623Z,1.10
2019-03-17T21:25:35.470Z,0.90
2019-03-17T21:28:05.608Z,0.80
2019-03-17T21:30:37.492Z,0.80
2019-03-17T21:33:07.638Z,0.90
2019-03-17T21:35:37.811Z,1.03
2019-03-17T21:38:09.106Z,0.80
2019-03-17T21:40:56.371Z,0.77
2019-03-17T21:43:16.315Z,0.90
2019-03-17T21:45:47.480Z,1.07
2019-03-17T21:48:20.112Z,1.70
2019-03-17T21:50:52.266Z,1.10
2019-03-17T21:53:22.368Z,1.20
2019-03-17T21:55:54.225Z,1.40
2019-03-17T21:58:25.911Z,1.40
2019-03-17T22:00:58.770Z,0.90
2019-03-17T22:03:34.126Z,1.00
2019-03-17T22:06:09.996Z,1.40
2019-03-17T22:08:40.183Z,1.20
2019-03-17T22:11:11.365Z,1.30
2019-03-17T22:13:44.027Z,1.50
2019-03-17T22:16:16.179Z,1.23
2019-03-17T22:18:46.157Z,1.33
2019-03-17T22:21:16.240Z,0.97
2019-03-17T22:23:46.354Z,1.27
2019-03-17T22:26:18.250Z,1.00
2019-03-17T22:28:50.213Z,1.23
2019-03-17T22:31:23.699Z,1.33
2019-03-17T22:33:53.777Z,1.30
2019-03-17T22:36:27.763Z,1.20
2019-03-17T22:38:58.729Z,0.93
2019-03-17T22:41:32.860Z,1.20
2019-03-17T22:44:04.060Z,1.23
2019-03-17T22:46:34.141Z,1.00
2019-03-17T22:49:04.253Z,1.03
2019-03-17T22:51:35.660Z,0.83
2019-03-17T22:54:10.196Z,1.10
2019-03-17T22:56:40.291Z,0.87
2019-03-17T22:59:10.406Z,1.13
2019-03-17T23:01:42.171Z,1.23
2019-03-17T23:04:12.291Z,1.23
2019-03-17T23:06:49.793Z,1.53
2019-03-17T23:09:24.127Z,1.20
2019-03-17T23:11:54.174Z,1.10
2019-03-17T23:14:35.842Z,0.70
2019-03-17T23:16:59.230Z,0.90
2019-03-17T23:19:31.246Z,0.60
2019-03-17T23:22:04.080Z,0.83
2019-03-17T23:24:34.172Z,0.80
2019-03-17T23:27:13.121Z,0.70
2019-03-17T23:29:47.967Z,0.90
2019-03-17T23:32:18.109Z,0.70
2019-03-17T23:34:48.157Z,0.90
2019-03-17T23:37:18.235Z,0.73
2019-03-17T23:39:49.576Z,0.80
2019-03-17T23:42:19.835Z,0.90
2019-03-17T23:44:50.242Z,0.70
2019-03-17T23:47:21.410Z,0.70
2019-03-17T23:49:51.485Z,0.90
2019-03-17T23:52:22.790Z,0.70
2019-03-17T23:54:52.909Z,0.83
2019-03-17T23:57:24.546Z,0.70
2019-03-17T23:59:55.779Z,0.73
